Chassell, Michigan
Current Conditions -  °F | °C
As of 11:53 PM on Saturday 25 Oct 2014 (Local Time) from KCMX Reporting Station
Clear Clear  
Wind Chill:   Ceiling: Unl
Heat Index:   Visibility: 10mi
Dew Point:   Wind: 21mph
Humidity: 56%   Direction: 300°WNW
Pressure: 29.84"   Gusts: 31mph
Location:  47.03°N, 88.53°W
Report Text: KCMX 260353Z AUTO 30018G27KT 10SM CLR 08/00 A2984 RMK AO2 PK WND 30029/0301 SLP108 T00830000
Loading
Personal Weather Stations






























Interactive Weather Map
Tropical Storm Tracking
New forecast layout! Learn more

10-Day Weather Forecast

Advertisements
Track Severe Weather on mobile